createdAt,value
2023-02-21T00:00:56.953Z,16.21
2023-02-21T00:04:16.817Z,16.19
2023-02-21T00:07:37.917Z,16.19
2023-02-21T00:10:57.723Z,16.17
2023-02-21T00:14:17.946Z,16.16
2023-02-21T00:17:37.930Z,16.17
2023-02-21T00:20:57.736Z,16.16
2023-02-21T00:24:17.616Z,16.15
2023-02-21T00:27:37.653Z,16.14
2023-02-21T00:30:58.054Z,16.14
2023-02-21T00:34:18.285Z,16.13
2023-02-21T00:37:38.087Z,16.13
2023-02-21T00:40:58.248Z,16.12
2023-02-21T00:44:18.326Z,16.11
2023-02-21T00:47:38.337Z,16.10
2023-02-21T00:50:58.661Z,16.10
2023-02-21T00:54:18.863Z,16.09
2023-02-21T00:57:39.274Z,16.09
2023-02-21T01:00:59.498Z,16.08
2023-02-21T01:04:19.806Z,16.08
2023-02-21T01:07:39.962Z,16.07
2023-02-21T01:11:00.132Z,16.06
2023-02-21T01:14:21.342Z,16.06
2023-02-21T01:17:41.151Z,16.05
2023-02-21T01:21:01.293Z,16.05
2023-02-21T01:24:22.520Z,16.04
2023-02-21T01:27:42.400Z,16.03
2023-02-21T01:31:02.730Z,16.03
2023-02-21T01:34:24.161Z,16.03
2023-02-21T01:37:44.354Z,16.03
2023-02-21T01:41:04.437Z,16.01
2023-02-21T01:44:45.763Z,16.01
2023-02-21T01:48:05.834Z,15.99
2023-02-21T01:51:28.735Z,15.99
2023-02-21T01:54:52.922Z,16.00
2023-02-21T01:58:14.596Z,15.99
2023-02-21T02:01:44.794Z,15.99
2023-02-21T02:05:06.999Z,15.97
2023-02-21T02:08:27.145Z,15.97
2023-02-21T02:12:05.981Z,15.96
2023-02-21T02:15:48.404Z,15.97
2023-02-21T02:19:02.739Z,15.96
2023-02-21T02:22:22.812Z,15.95
2023-02-21T02:25:27.323Z,15.94
2023-02-21T02:28:53.646Z,15.95
2023-02-21T02:32:06.330Z,15.94
2023-02-21T02:35:32.203Z,15.94
2023-02-21T02:38:41.876Z,15.92
2023-02-21T02:42:05.698Z,15.93
2023-02-21T02:45:12.335Z,15.90
2023-02-21T02:48:22.048Z,15.90
2023-02-21T02:51:25.483Z,15.89
2023-02-21T02:54:27.948Z,15.90
2023-02-21T02:57:38.168Z,15.89
2023-02-21T03:00:45.842Z,15.89
2023-02-21T03:04:25.344Z,15.89
2023-02-21T03:07:41.222Z,15.89
2023-02-21T03:10:52.859Z,15.86
2023-02-21T03:14:14.636Z,15.86
2023-02-21T03:17:20.843Z,15.87
2023-02-21T03:20:23.172Z,15.86
2023-02-21T03:23:28.234Z,15.85
2023-02-21T03:26:34.777Z,15.85
2023-02-21T03:29:51.374Z,15.85
2023-02-21T03:32:55.598Z,15.84
2023-02-21T03:36:00.384Z,15.82
2023-02-21T03:39:03.127Z,15.83
2023-02-21T03:42:04.670Z,15.82
2023-02-21T03:45:07.445Z,15.82
2023-02-21T03:48:09.188Z,15.82
2023-02-21T03:51:12.715Z,15.82
2023-02-21T03:54:14.806Z,15.81
2023-02-21T03:57:19.866Z,15.80
2023-02-21T04:00:22.929Z,15.81
2023-02-21T04:03:27.638Z,15.81
2023-02-21T04:06:33.197Z,15.83
2023-02-21T04:09:34.845Z,15.83
2023-02-21T04:12:36.618Z,15.86
2023-02-21T04:15:38.516Z,15.88
2023-02-21T04:18:40.512Z,15.89
2023-02-21T04:21:43.838Z,15.94
2023-02-21T04:24:48.009Z,15.96
2023-02-21T04:27:50.358Z,15.97
2023-02-21T04:30:52.453Z,16.00
2023-02-21T04:34:10.645Z,16.01
2023-02-21T04:37:15.289Z,16.06
2023-02-21T04:40:17.582Z,16.08
2023-02-21T04:43:21.019Z,16.09
2023-02-21T04:46:22.513Z,16.12
2023-02-21T04:49:27.467Z,16.15
2023-02-21T04:52:29.007Z,16.17
2023-02-21T04:55:30.499Z,16.18
2023-02-21T04:58:44.242Z,16.18
2023-02-21T05:01:46.538Z,16.20
2023-02-21T05:04:48.056Z,16.21
2023-02-21T05:07:49.625Z,16.23
2023-02-21T05:10:51.449Z,16.22
2023-02-21T05:13:53.805Z,16.23
2023-02-21T05:16:55.370Z,16.22
2023-02-21T05:19:57.131Z,16.22
2023-02-21T05:23:04.774Z,16.22
2023-02-21T05:26:13.808Z,16.21
2023-02-21T05:29:15.478Z,16.21
2023-02-21T05:32:17.866Z,16.21
2023-02-21T05:35:20.002Z,16.19
2023-02-21T05:38:23.094Z,16.19
2023-02-21T05:41:25.005Z,16.19
2023-02-21T05:44:26.518Z,16.16
2023-02-21T05:47:28.017Z,16.16
2023-02-21T05:50:30.089Z,16.16
2023-02-21T05:53:31.553Z,16.16
2023-02-21T05:56:41.205Z,16.18
2023-02-21T05:59:43.532Z,16.17
2023-02-21T06:02:45.062Z,16.18
2023-02-21T06:05:46.613Z,16.18
2023-02-21T06:08:49.458Z,16.19
2023-02-21T06:11:50.945Z,16.20
2023-02-21T06:14:52.812Z,16.21
2023-02-21T06:17:54.282Z,16.23
2023-02-21T06:20:55.747Z,16.26
2023-02-21T06:23:57.625Z,16.27
2023-02-21T06:26:59.104Z,16.29
2023-02-21T06:30:00.584Z,16.29
2023-02-21T06:33:02.211Z,16.30
2023-02-21T06:36:09.088Z,16.32
2023-02-21T06:39:11.924Z,16.33
2023-02-21T06:42:17.522Z,16.35
2023-02-21T06:45:18.996Z,16.34
2023-02-21T06:48:20.557Z,16.34
2023-02-21T06:51:28.982Z,16.33
2023-02-21T06:54:30.507Z,16.33
2023-02-21T06:57:32.002Z,16.34
2023-02-21T07:00:33.634Z,16.33
2023-02-21T07:03:39.344Z,16.34
2023-02-21T07:06:40.851Z,16.32
2023-02-21T07:09:42.527Z,16.32
2023-02-21T07:12:44.007Z,16.30
2023-02-21T07:15:45.628Z,16.30
2023-02-21T07:18:47.394Z,16.30
2023-02-21T07:21:48.933Z,16.29
2023-02-21T07:24:50.435Z,16.28
2023-02-21T07:27:52.816Z,16.26
2023-02-21T07:30:54.411Z,16.26
2023-02-21T07:33:55.931Z,16.24
2023-02-21T07:36:57.456Z,16.22
2023-02-21T07:39:59.088Z,16.21
2023-02-21T07:43:00.624Z,16.20
2023-02-21T07:46:02.214Z,16.21
2023-02-21T07:49:03.815Z,16.20
2023-02-21T07:52:05.719Z,16.19
2023-02-21T07:55:07.294Z,16.18
2023-02-21T07:58:08.856Z,16.18
2023-02-21T08:01:10.411Z,16.16
2023-02-21T08:04:13.088Z,16.16
2023-02-21T08:07:14.602Z,16.15
2023-02-21T08:10:26.912Z,16.15
2023-02-21T08:13:28.400Z,16.12
2023-02-21T08:16:29.923Z,16.13
2023-02-21T08:19:31.414Z,16.12
2023-02-21T08:22:32.988Z,16.12
2023-02-21T08:25:34.422Z,16.12
2023-02-21T08:28:37.265Z,16.11
2023-02-21T08:31:40.314Z,16.12
2023-02-21T08:34:45.173Z,16.12
2023-02-21T08:37:48.484Z,16.11
2023-02-21T08:40:51.361Z,16.09
2023-02-21T08:43:52.874Z,16.08
2023-02-21T08:46:54.414Z,16.08
2023-02-21T08:49:55.930Z,16.07
2023-02-21T08:52:57.532Z,16.07
2023-02-21T08:55:59.003Z,16.06
2023-02-21T08:59:00.949Z,16.07
2023-02-21T09:02:02.583Z,16.06
2023-02-21T09:05:04.423Z,16.06
2023-02-21T09:08:09.135Z,16.05
2023-02-21T09:11:10.697Z,16.04
2023-02-21T09:14:12.259Z,16.04
2023-02-21T09:17:14.586Z,16.04
2023-02-21T09:20:19.879Z,16.05
2023-02-21T09:23:21.785Z,16.04
2023-02-21T09:26:24.219Z,16.03
2023-02-21T09:29:31.626Z,16.04
2023-02-21T09:32:39.706Z,16.04
2023-02-21T09:35:41.480Z,16.04
2023-02-21T09:38:43.024Z,16.02
2023-02-21T09:41:45.090Z,16.03
2023-02-21T09:44:47.720Z,16.03
2023-02-21T09:47:53.182Z,16.03
2023-02-21T09:51:00.055Z,16.03
2023-02-21T09:54:03.326Z,16.02
2023-02-21T09:57:11.952Z,16.03
2023-02-21T10:00:23.418Z,16.03
2023-02-21T10:03:57.486Z,16.03
2023-02-21T10:07:25.803Z,16.02
2023-02-21T10:10:34.972Z,16.02
2023-02-21T10:13:46.048Z,16.03
2023-02-21T10:16:58.974Z,16.02
2023-02-21T10:20:28.095Z,16.02
2023-02-21T10:23:35.849Z,16.01
2023-02-21T10:26:42.362Z,16.01
2023-02-21T10:29:50.738Z,16.00
2023-02-21T10:32:53.047Z,15.99
2023-02-21T10:35:55.120Z,16.00
2023-02-21T10:39:09.920Z,16.00
2023-02-21T10:42:28.857Z,16.00
2023-02-21T10:45:36.416Z,15.99
2023-02-21T10:48:41.416Z,15.99
2023-02-21T10:51:43.033Z,15.99
2023-02-21T10:54:59.909Z,16.00
2023-02-21T10:58:11.486Z,16.00
2023-02-21T11:01:30.349Z,16.01
2023-02-21T11:04:35.346Z,16.00
2023-02-21T11:07:37.350Z,15.99
2023-02-21T11:10:44.127Z,16.01
2023-02-21T11:13:45.759Z,15.99
2023-02-21T11:17:04.216Z,16.00
2023-02-21T11:20:14.802Z,16.00
2023-02-21T11:23:30.353Z,16.00
2023-02-21T11:26:53.497Z,16.00
2023-02-21T11:29:55.734Z,15.98
2023-02-21T11:33:00.814Z,15.98
2023-02-21T11:36:20.863Z,15.99
2023-02-21T11:39:33.330Z,15.99
2023-02-21T11:42:35.057Z,15.98
2023-02-21T11:45:40.845Z,15.98
2023-02-21T11:48:50.189Z,15.99
2023-02-21T11:52:02.947Z,16.00
2023-02-21T11:55:12.339Z,15.98
2023-02-21T11:58:54.078Z,16.00
2023-02-21T12:02:29.278Z,15.99
2023-02-21T12:05:50.414Z,16.00
2023-02-21T12:09:01.745Z,16.00
2023-02-21T12:12:21.291Z,16.00
2023-02-21T12:15:30.049Z,15.98
2023-02-21T12:18:50.020Z,15.98
2023-02-21T12:22:09.972Z,16.01
2023-02-21T12:25:36.753Z,16.01
2023-02-21T12:28:56.275Z,16.00
2023-02-21T12:32:24.217Z,16.00
2023-02-21T12:36:06.537Z,15.99
2023-02-21T12:39:27.817Z,15.99
2023-02-21T12:42:47.165Z,15.97
2023-02-21T12:46:42.852Z,15.98
2023-02-21T12:49:50.397Z,15.97
2023-02-21T12:53:07.502Z,15.98
2023-02-21T12:56:35.174Z,15.98
2023-02-21T13:00:07.891Z,15.97
2023-02-21T13:03:29.984Z,15.96
2023-02-21T13:06:31.745Z,15.95
2023-02-21T13:09:43.029Z,15.97
2023-02-21T13:12:54.265Z,15.96
2023-02-21T13:15:57.565Z,15.95
2023-02-21T13:19:07.671Z,15.96
2023-02-21T13:23:05.507Z,15.97
2023-02-21T13:27:04.163Z,15.97
2023-02-21T13:30:14.471Z,15.97
2023-02-21T13:33:26.379Z,15.98
2023-02-21T13:36:43.110Z,15.97
2023-02-21T13:39:53.682Z,15.96
2023-02-21T13:43:06.617Z,15.97
2023-02-21T13:46:23.448Z,15.98
2023-02-21T13:49:42.994Z,15.97
2023-02-21T13:52:53.700Z,15.97
2023-02-21T13:56:07.331Z,15.96
2023-02-21T13:59:24.836Z,15.97
2023-02-21T14:02:32.792Z,15.96
2023-02-21T14:05:46.933Z,15.96
2023-02-21T14:08:49.773Z,15.94
2023-02-21T14:11:54.072Z,15.96
2023-02-21T14:15:06.964Z,15.95
2023-02-21T14:18:17.978Z,15.96
2023-02-21T14:21:34.308Z,15.95
2023-02-21T14:24:39.383Z,15.95
2023-02-21T14:27:40.943Z,15.94
2023-02-21T14:30:42.480Z,15.94
2023-02-21T14:33:44.098Z,15.94
2023-02-21T14:36:48.865Z,15.93
2023-02-21T14:40:21.546Z,15.95
2023-02-21T14:43:41.463Z,15.92
2023-02-21T14:47:13.891Z,15.94
2023-02-21T14:50:32.258Z,15.92
2023-02-21T14:53:56.944Z,15.92
2023-02-21T14:57:35.987Z,15.92
2023-02-21T15:01:07.541Z,15.92
2023-02-21T15:04:18.896Z,15.91
2023-02-21T15:07:42.852Z,15.91
2023-02-21T15:10:46.768Z,15.90
2023-02-21T15:13:48.479Z,15.88
2023-02-21T15:17:16.635Z,15.90
2023-02-21T15:20:18.189Z,15.88
2023-02-21T15:23:29.541Z,15.90
2023-02-21T15:26:32.284Z,15.88
2023-02-21T15:29:33.852Z,15.88
2023-02-21T15:32:36.241Z,15.88
2023-02-21T15:35:53.630Z,15.89
2023-02-21T15:39:07.390Z,15.87
2023-02-21T15:42:11.499Z,15.88
2023-02-21T15:45:20.873Z,15.89
2023-02-21T15:48:22.766Z,15.89
2023-02-21T15:51:25.037Z,15.91
2023-02-21T15:54:28.452Z,15.94
2023-02-21T15:57:29.907Z,15.96
2023-02-21T16:01:08.066Z,15.99
2023-02-21T16:04:15.900Z,16.01
2023-02-21T16:07:23.660Z,16.05
2023-02-21T16:10:26.016Z,16.04
2023-02-21T16:13:35.550Z,16.07
2023-02-21T16:16:37.358Z,16.09
2023-02-21T16:19:41.137Z,16.13
2023-02-21T16:23:07.627Z,16.16
2023-02-21T16:26:12.065Z,16.17
2023-02-21T16:29:13.629Z,16.20
2023-02-21T16:32:19.567Z,16.23
2023-02-21T16:35:23.602Z,16.24
2023-02-21T16:38:27.027Z,16.26
2023-02-21T16:41:28.637Z,16.27
2023-02-21T16:44:30.104Z,16.28
2023-02-21T16:47:31.604Z,16.30
2023-02-21T16:50:39.092Z,16.32
2023-02-21T16:53:41.147Z,16.33
2023-02-21T16:56:46.067Z,16.35
2023-02-21T16:59:47.537Z,16.34
2023-02-21T17:02:50.822Z,16.36
2023-02-21T17:05:53.138Z,16.35
2023-02-21T17:08:54.854Z,16.36
2023-02-21T17:11:56.393Z,16.36
2023-02-21T17:14:57.868Z,16.36
2023-02-21T17:17:59.908Z,16.36
2023-02-21T17:21:01.826Z,16.35
2023-02-21T17:24:04.093Z,16.36
2023-02-21T17:27:05.818Z,16.36
2023-02-21T17:30:08.285Z,16.37
2023-02-21T17:33:11.042Z,16.38
2023-02-21T17:36:20.732Z,16.39
2023-02-21T17:39:22.220Z,16.37
2023-02-21T17:42:24.692Z,16.38
2023-02-21T17:45:26.425Z,16.38
2023-02-21T17:48:27.921Z,16.37
2023-02-21T17:51:29.476Z,16.36
2023-02-21T17:54:31.172Z,16.36
2023-02-21T17:57:37.069Z,16.38
2023-02-21T18:00:39.383Z,16.36
2023-02-21T18:03:40.865Z,16.37
2023-02-21T18:06:45.330Z,16.37
2023-02-21T18:09:47.554Z,16.38
2023-02-21T18:12:51.197Z,16.37
2023-02-21T18:15:53.021Z,16.39
2023-02-21T18:18:54.776Z,16.39
2023-02-21T18:21:56.304Z,16.39
2023-02-21T18:24:57.791Z,16.40
2023-02-21T18:28:00.037Z,16.41
2023-02-21T18:31:01.767Z,16.42
2023-02-21T18:34:04.460Z,16.44
2023-02-21T18:37:08.039Z,16.45
2023-02-21T18:40:10.179Z,16.45
2023-02-21T18:43:19.781Z,16.46
2023-02-21T18:46:22.090Z,16.46
2023-02-21T18:49:24.381Z,16.46
2023-02-21T18:52:25.975Z,16.47
2023-02-21T18:55:27.584Z,16.48
2023-02-21T18:58:29.141Z,16.48
2023-02-21T19:01:30.685Z,16.49
2023-02-21T19:04:33.071Z,16.49
2023-02-21T19:07:36.371Z,16.48
2023-02-21T19:10:37.845Z,16.48
2023-02-21T19:13:39.408Z,16.47
2023-02-21T19:16:41.038Z,16.47
2023-02-21T19:19:42.613Z,16.47
2023-02-21T19:22:44.399Z,16.47
2023-02-21T19:25:46.098Z,16.49
2023-02-21T19:28:49.020Z,16.50
2023-02-21T19:31:50.597Z,16.50
2023-02-21T19:34:52.206Z,16.50
2023-02-21T19:37:54.419Z,16.51
2023-02-21T19:40:55.909Z,16.50
2023-02-21T19:43:57.473Z,16.50
2023-02-21T19:46:59.002Z,16.51
2023-02-21T19:50:00.626Z,16.50
2023-02-21T19:53:02.455Z,16.51
2023-02-21T19:56:04.170Z,16.50
2023-02-21T19:59:05.914Z,16.51
2023-02-21T20:02:10.693Z,16.53
2023-02-21T20:05:16.236Z,16.51
2023-02-21T20:08:18.064Z,16.52
2023-02-21T20:11:20.988Z,16.51
2023-02-21T20:14:22.432Z,16.52
2023-02-21T20:17:23.930Z,16.52
2023-02-21T20:20:25.423Z,16.51
2023-02-21T20:23:26.905Z,16.52
2023-02-21T20:26:29.594Z,16.55
2023-02-21T20:29:31.191Z,16.53
2023-02-21T20:32:32.806Z,16.52
2023-02-21T20:35:34.279Z,16.53
2023-02-21T20:38:38.981Z,16.55
2023-02-21T20:41:40.538Z,16.54
2023-02-21T20:44:44.030Z,16.56
2023-02-21T20:47:45.572Z,16.55
2023-02-21T20:50:47.236Z,16.55
2023-02-21T20:53:49.766Z,16.56
2023-02-21T20:56:54.448Z,16.56
2023-02-21T20:59:56.654Z,16.56
2023-02-21T21:02:59.207Z,16.56
2023-02-21T21:06:00.679Z,16.57
2023-02-21T21:09:02.187Z,16.57
2023-02-21T21:12:10.570Z,16.59
2023-02-21T21:15:14.255Z,16.60
2023-02-21T21:18:15.743Z,16.58
2023-02-21T21:21:18.377Z,16.59
2023-02-21T21:24:20.863Z,16.60
2023-02-21T21:27:22.396Z,16.60
2023-02-21T21:30:24.847Z,16.60
2023-02-21T21:33:27.605Z,16.61
2023-02-21T21:36:29.054Z,16.61
2023-02-21T21:39:31.475Z,16.60
2023-02-21T21:42:33.158Z,16.61
2023-02-21T21:45:44.044Z,16.61
2023-02-21T21:48:45.610Z,16.61
2023-02-21T21:51:48.420Z,16.60
2023-02-21T21:54:50.085Z,16.61
2023-02-21T21:57:55.938Z,16.60
2023-02-21T22:00:57.665Z,16.60
2023-02-21T22:03:59.174Z,16.59
2023-02-21T22:07:00.631Z,16.60
2023-02-21T22:10:02.071Z,16.57
2023-02-21T22:13:13.427Z,16.58
2023-02-21T22:16:15.102Z,16.56
2023-02-21T22:19:18.342Z,16.56
2023-02-21T22:22:19.824Z,16.57
2023-02-21T22:25:21.283Z,16.56
2023-02-21T22:28:22.736Z,16.54
2023-02-21T22:31:25.785Z,16.55
2023-02-21T22:34:27.406Z,16.53
2023-02-21T22:37:28.957Z,16.53
2023-02-21T22:40:35.363Z,16.53
2023-02-21T22:43:36.861Z,16.51
2023-02-21T22:46:42.185Z,16.50
2023-02-21T22:49:45.364Z,16.49
2023-02-21T22:52:56.003Z,16.49
2023-02-21T22:55:58.778Z,16.46
2023-02-21T22:59:00.287Z,16.44
2023-02-21T23:02:04.053Z,16.45
2023-02-21T23:05:05.842Z,16.43
2023-02-21T23:08:07.387Z,16.43
2023-02-21T23:11:08.921Z,16.43
2023-02-21T23:14:10.445Z,16.42
2023-02-21T23:17:12.203Z,16.41
2023-02-21T23:20:16.755Z,16.42
2023-02-21T23:23:19.380Z,16.40
2023-02-21T23:26:20.882Z,16.40
2023-02-21T23:29:25.539Z,16.39
2023-02-21T23:32:27.042Z,16.37
2023-02-21T23:35:28.522Z,16.36
2023-02-21T23:38:30.151Z,16.36
2023-02-21T23:41:34.253Z,16.35
2023-02-21T23:44:36.140Z,16.35
2023-02-21T23:47:41.988Z,16.36
2023-02-21T23:50:46.417Z,16.34
2023-02-21T23:53:48.692Z,16.33
2023-02-21T23:56:50.290Z,16.31
2023-02-21T23:59:52.492Z,16.30
